createdAt,value
2022-08-07T00:00:52.032Z,33.37
2022-08-07T00:03:19.464Z,33.49
2022-08-07T00:05:53.053Z,33.35
2022-08-07T00:08:21.855Z,33.65
2022-08-07T00:10:57.625Z,33.78
2022-08-07T00:13:26.726Z,33.50
2022-08-07T00:15:54.787Z,33.69
2022-08-07T00:18:25.421Z,33.28
2022-08-07T00:20:54.051Z,33.50
2022-08-07T00:23:21.722Z,33.58
2022-08-07T00:25:59.005Z,33.65
2022-08-07T00:28:33.208Z,33.52
2022-08-07T00:31:04.553Z,33.69
2022-08-07T00:33:33.960Z,33.79
2022-08-07T00:36:01.275Z,33.49
2022-08-07T00:38:31.512Z,33.80
2022-08-07T00:41:00.577Z,33.82
2022-08-07T00:44:01.714Z,33.86
2022-08-07T00:46:14.941Z,33.60
2022-08-07T00:48:42.626Z,33.51
2022-08-07T00:51:10.668Z,33.54
2022-08-07T00:53:38.593Z,33.83
2022-08-07T00:56:13.880Z,33.56
2022-08-07T00:58:42.634Z,33.64
2022-08-07T01:01:14.032Z,33.88
2022-08-07T01:03:55.511Z,33.80
2022-08-07T01:06:28.317Z,33.58
2022-08-07T01:08:58.450Z,33.39
2022-08-07T01:12:09.583Z,33.71
2022-08-07T01:14:21.489Z,33.67
2022-08-07T01:16:56.360Z,33.52
2022-08-07T01:19:24.657Z,33.78
2022-08-07T01:21:55.307Z,33.65
2022-08-07T01:24:23.201Z,33.55
2022-08-07T01:26:51.916Z,33.66
2022-08-07T01:29:20.017Z,33.78
2022-08-07T01:31:48.106Z,33.49
2022-08-07T01:34:16.176Z,33.51
2022-08-07T01:36:45.348Z,33.90
2022-08-07T01:39:21.563Z,33.87
2022-08-07T01:41:55.274Z,33.64
2022-08-07T01:44:35.470Z,33.71
2022-08-07T01:48:16.967Z,33.79
2022-08-07T01:49:54.683Z,33.81
2022-08-07T01:52:26.693Z,33.71
2022-08-07T01:54:57.144Z,33.90
2022-08-07T01:57:30.044Z,33.68
2022-08-07T02:00:12.776Z,34.01
2022-08-07T02:03:18.405Z,33.97
2022-08-07T02:05:48.295Z,33.72
2022-08-07T02:08:24.646Z,33.93
2022-08-07T02:10:57.952Z,33.77
2022-08-07T02:14:02.304Z,33.69
2022-08-07T02:16:17.279Z,33.70
2022-08-07T02:18:51.192Z,33.98
2022-08-07T02:21:20.202Z,33.91
2022-08-07T02:23:49.355Z,34.18
2022-08-07T02:26:32.588Z,34.02
2022-08-07T02:29:03.195Z,33.89
2022-08-07T02:31:32.700Z,33.78
2022-08-07T02:34:10.943Z,34.11
2022-08-07T02:36:41.243Z,33.76
2022-08-07T02:39:17.271Z,33.82
2022-08-07T02:41:59.528Z,34.14
2022-08-07T02:44:34.345Z,33.81
2022-08-07T02:47:03.729Z,33.57
2022-08-07T02:49:56.377Z,33.62
2022-08-07T02:52:32.051Z,34.12
2022-08-07T02:55:04.761Z,33.77
2022-08-07T02:57:56.929Z,33.90
2022-08-07T03:00:28.238Z,33.74
2022-08-07T03:02:58.460Z,33.75
2022-08-07T03:05:29.115Z,33.83
2022-08-07T03:08:07.545Z,34.06
2022-08-07T03:10:41.138Z,34.25
2022-08-07T03:13:19.361Z,34.12
2022-08-07T03:15:56.422Z,34.10
2022-08-07T03:18:34.634Z,33.91
2022-08-07T03:21:05.153Z,34.17
2022-08-07T03:24:18.372Z,34.24
2022-08-07T03:26:27.914Z,34.10
2022-08-07T03:28:58.391Z,34.19
2022-08-07T03:31:43.401Z,34.04
2022-08-07T03:34:18.445Z,34.00
2022-08-07T03:36:50.803Z,34.02
2022-08-07T03:39:46.007Z,34.14
2022-08-07T03:42:07.951Z,34.07
2022-08-07T03:44:38.534Z,34.16
2022-08-07T03:47:13.361Z,33.75
2022-08-07T03:49:52.531Z,33.84
2022-08-07T03:52:26.414Z,33.85
2022-08-07T03:54:57.305Z,33.73
2022-08-07T03:58:33.613Z,34.09
2022-08-07T04:00:30.347Z,34.20
2022-08-07T04:02:58.464Z,33.91
2022-08-07T04:05:39.414Z,34.04
2022-08-07T04:08:11.026Z,34.06
2022-08-07T04:10:39.017Z,34.11
2022-08-07T04:13:15.105Z,33.92
2022-08-07T04:15:45.394Z,33.97
2022-08-07T04:18:58.352Z,33.78
2022-08-07T04:21:01.695Z,33.90
2022-08-07T04:24:01.944Z,34.41
2022-08-07T04:26:21.970Z,33.70
2022-08-07T04:28:49.435Z,33.68
2022-08-07T04:31:20.121Z,33.93
2022-08-07T04:33:54.932Z,33.77
2022-08-07T04:36:26.203Z,33.81
2022-08-07T04:38:53.831Z,33.66
2022-08-07T04:41:21.151Z,33.77
2022-08-07T04:44:10.664Z,33.91
2022-08-07T04:46:59.624Z,33.93
2022-08-07T04:49:39.546Z,34.09
2022-08-07T04:52:14.399Z,33.84
2022-08-07T04:54:53.983Z,34.22
2022-08-07T04:58:12.382Z,33.99
2022-08-07T05:00:23.991Z,33.95
2022-08-07T05:03:17.160Z,34.25
2022-08-07T05:06:19.184Z,34.01
2022-08-07T05:09:01.458Z,34.10
2022-08-07T05:11:57.007Z,33.83
2022-08-07T05:14:53.516Z,34.03
2022-08-07T05:17:52.232Z,33.70
2022-08-07T05:20:13.482Z,33.62
2022-08-07T05:22:43.430Z,34.22
2022-08-07T05:25:25.957Z,34.04
2022-08-07T05:28:02.816Z,33.86
2022-08-07T05:30:44.623Z,34.20
2022-08-07T05:33:16.156Z,33.97
2022-08-07T05:35:47.902Z,34.14
2022-08-07T05:39:01.013Z,33.99
2022-08-07T05:41:05.444Z,33.94
2022-08-07T05:43:56.458Z,33.88
2022-08-07T05:46:31.043Z,33.92
2022-08-07T05:49:00.328Z,34.15
2022-08-07T05:51:31.802Z,34.17
2022-08-07T05:54:12.472Z,33.88
2022-08-07T05:56:51.441Z,34.07
2022-08-07T05:59:21.092Z,34.09
2022-08-07T06:01:50.141Z,34.21
2022-08-07T06:04:21.248Z,34.74
2022-08-07T06:07:03.763Z,34.61
2022-08-07T06:09:45.043Z,35.04
2022-08-07T06:12:21.155Z,34.90
2022-08-07T06:15:05.275Z,34.63
2022-08-07T06:17:37.772Z,34.91
2022-08-07T06:20:12.351Z,34.96
2022-08-07T06:23:02.558Z,34.70
2022-08-07T06:25:54.484Z,34.96
2022-08-07T06:28:27.660Z,34.81
2022-08-07T06:30:56.160Z,34.92
2022-08-07T06:33:24.525Z,35.53
2022-08-07T06:36:12.020Z,34.81
2022-08-07T06:38:58.652Z,36.84
2022-08-07T06:42:00.384Z,36.90
2022-08-07T06:44:21.440Z,36.36
2022-08-07T06:46:53.623Z,36.36
2022-08-07T06:49:52.305Z,35.12
2022-08-07T06:52:31.839Z,31.80
2022-08-07T06:55:32.587Z,31.46
2022-08-07T06:58:04.166Z,31.58
2022-08-07T07:00:35.955Z,38.47
2022-08-07T07:03:08.491Z,35.55
2022-08-07T07:06:03.135Z,33.62
2022-08-07T07:08:27.643Z,32.25
2022-08-07T07:10:58.836Z,31.21
2022-08-07T07:13:43.614Z,31.33
2022-08-07T07:16:23.733Z,29.74
2022-08-07T07:18:59.386Z,30.09
2022-08-07T07:21:40.329Z,29.98
2022-08-07T07:24:17.545Z,30.13
2022-08-07T07:26:49.592Z,30.24
2022-08-07T07:29:56.558Z,30.18
2022-08-07T07:32:13.957Z,29.59
2022-08-07T07:34:45.605Z,30.47
2022-08-07T07:37:44.488Z,29.61
2022-08-07T07:40:10.246Z,29.94
2022-08-07T07:42:47.140Z,29.44
2022-08-07T07:45:24.489Z,30.02
2022-08-07T07:48:11.131Z,29.98
2022-08-07T07:50:40.172Z,29.50
2022-08-07T07:53:20.168Z,29.34
2022-08-07T07:55:57.789Z,29.60
2022-08-07T07:58:40.488Z,29.91
2022-08-07T08:02:03.151Z,29.79
2022-08-07T08:04:09.697Z,29.88
2022-08-07T08:06:39.423Z,30.03
2022-08-07T08:09:08.487Z,30.16
2022-08-07T08:11:59.987Z,29.81
2022-08-07T08:14:26.657Z,32.07
2022-08-07T08:16:56.033Z,38.02
2022-08-07T08:20:17.329Z,33.91
2022-08-07T08:22:33.086Z,29.09
2022-08-07T08:25:18.342Z,29.36
2022-08-07T08:27:56.701Z,30.27
2022-08-07T08:30:28.096Z,29.51
2022-08-07T08:32:59.370Z,30.29
2022-08-07T08:35:28.908Z,29.74
2022-08-07T08:38:08.424Z,34.47
2022-08-07T08:40:43.886Z,32.03
2022-08-07T08:43:19.879Z,31.33
2022-08-07T08:45:59.092Z,30.83
2022-08-07T08:48:36.393Z,30.84
2022-08-07T08:51:14.486Z,31.32
2022-08-07T08:53:55.087Z,30.73
2022-08-07T08:56:26.270Z,29.92
2022-08-07T08:58:59.928Z,29.34
2022-08-07T09:01:46.541Z,29.59
2022-08-07T09:04:25.976Z,29.34
2022-08-07T09:07:03.444Z,29.68
2022-08-07T09:09:57.229Z,28.92
2022-08-07T09:12:40.998Z,29.27
2022-08-07T09:16:20.045Z,29.77
2022-08-07T09:18:23.633Z,29.16
2022-08-07T09:21:03.738Z,28.72
2022-08-07T09:24:32.504Z,30.86
2022-08-07T09:26:51.129Z,29.14
2022-08-07T09:30:05.591Z,29.14
2022-08-07T09:32:26.495Z,29.18
2022-08-07T09:36:04.017Z,29.37
2022-08-07T09:38:00.431Z,29.47
2022-08-07T09:40:47.137Z,29.39
2022-08-07T09:44:03.588Z,29.29
2022-08-07T09:47:50.441Z,28.97
2022-08-07T09:50:01.778Z,29.44
2022-08-07T09:52:42.490Z,29.57
2022-08-07T09:55:28.764Z,29.65
2022-08-07T09:58:32.454Z,30.81
2022-08-07T10:01:15.030Z,30.11
2022-08-07T10:04:17.283Z,30.14
2022-08-07T10:07:26.302Z,29.18
2022-08-07T10:10:12.094Z,29.68
2022-08-07T10:13:11.021Z,35.34
2022-08-07T10:16:16.029Z,29.37
2022-08-07T10:19:11.311Z,28.34
2022-08-07T10:22:14.088Z,29.18
2022-08-07T10:24:50.904Z,28.67
2022-08-07T10:27:46.897Z,28.22
2022-08-07T10:30:18.508Z,28.83
2022-08-07T10:33:13.069Z,28.62
2022-08-07T10:36:11.081Z,28.34
2022-08-07T10:38:49.920Z,28.97
2022-08-07T10:41:46.882Z,28.38
2022-08-07T10:44:33.904Z,28.52
2022-08-07T10:47:18.523Z,30.38
2022-08-07T10:50:03.237Z,28.35
2022-08-07T10:52:37.271Z,28.61
2022-08-07T10:55:20.978Z,28.32
2022-08-07T10:58:15.714Z,32.32
2022-08-07T11:00:56.308Z,31.48
2022-08-07T11:03:37.844Z,29.19
2022-08-07T11:06:18.510Z,28.41
2022-08-07T11:08:54.867Z,28.47
2022-08-07T11:11:27.353Z,27.76
2022-08-07T11:14:46.028Z,29.16
2022-08-07T11:16:56.785Z,27.41
2022-08-07T11:19:35.101Z,27.74
2022-08-07T11:22:18.945Z,27.97
2022-08-07T11:25:06.607Z,28.55
2022-08-07T11:28:02.342Z,27.73
2022-08-07T11:30:41.399Z,28.25
2022-08-07T11:33:54.137Z,27.85
2022-08-07T11:36:25.170Z,28.06
2022-08-07T11:39:00.530Z,27.66
2022-08-07T11:42:01.863Z,27.27
2022-08-07T11:44:36.197Z,28.54
2022-08-07T11:47:12.499Z,28.16
2022-08-07T11:50:30.786Z,28.38
2022-08-07T11:53:02.688Z,29.26
2022-08-07T11:56:15.517Z,29.87
2022-08-07T11:58:44.424Z,29.55
2022-08-07T12:01:58.682Z,29.67
2022-08-07T12:04:45.779Z,29.51
2022-08-07T12:07:26.918Z,29.48
2022-08-07T12:10:02.242Z,29.41
2022-08-07T12:12:42.504Z,29.64
2022-08-07T12:15:17.385Z,29.67
2022-08-07T12:18:12.649Z,29.41
2022-08-07T12:20:49.351Z,29.78
2022-08-07T12:23:37.194Z,29.87
2022-08-07T12:26:29.713Z,30.11
2022-08-07T12:29:07.378Z,29.92
2022-08-07T12:31:52.685Z,29.76
2022-08-07T12:34:29.881Z,29.69
2022-08-07T12:36:59.560Z,29.63
2022-08-07T12:39:43.239Z,29.56
2022-08-07T12:42:15.552Z,29.39
2022-08-07T12:44:47.626Z,29.87
2022-08-07T12:47:27.063Z,29.66
2022-08-07T12:50:38.113Z,29.62
2022-08-07T12:52:59.525Z,29.86
2022-08-07T12:55:41.350Z,29.88
2022-08-07T12:58:28.255Z,29.64
2022-08-07T13:01:12.257Z,30.10
2022-08-07T13:04:02.947Z,29.85
2022-08-07T13:07:00.880Z,29.90
2022-08-07T13:10:28.474Z,30.27
2022-08-07T13:12:50.980Z,29.95
2022-08-07T13:15:31.750Z,30.04
2022-08-07T13:18:26.867Z,30.03
2022-08-07T13:21:02.778Z,30.00
2022-08-07T13:24:01.624Z,29.99
2022-08-07T13:26:31.291Z,30.04
2022-08-07T13:29:09.329Z,30.04
2022-08-07T13:31:55.043Z,29.85
2022-08-07T13:34:35.984Z,29.68
2022-08-07T13:37:10.661Z,29.80
2022-08-07T13:40:34.018Z,30.02
2022-08-07T13:42:39.846Z,30.03
2022-08-07T13:46:06.338Z,29.56
2022-08-07T13:48:06.149Z,30.15
2022-08-07T13:50:44.981Z,31.70
2022-08-07T13:53:55.172Z,31.28
2022-08-07T13:56:20.233Z,30.78
2022-08-07T13:59:10.349Z,30.50
2022-08-07T14:01:55.506Z,30.53
2022-08-07T14:04:35.766Z,30.48
2022-08-07T14:07:09.486Z,30.66
2022-08-07T14:10:02.890Z,30.51
2022-08-07T14:12:30.797Z,30.41
2022-08-07T14:15:04.474Z,30.33
2022-08-07T14:18:13.654Z,30.49
2022-08-07T14:20:40.178Z,31.57
2022-08-07T14:23:31.683Z,30.35
2022-08-07T14:26:23.602Z,31.02
2022-08-07T14:29:04.324Z,30.96
2022-08-07T14:31:42.725Z,30.75
2022-08-07T14:34:29.288Z,31.17
2022-08-07T14:37:02.988Z,30.97
2022-08-07T14:40:16.671Z,30.59
2022-08-07T14:42:25.141Z,30.92
2022-08-07T14:44:59.738Z,30.77
2022-08-07T14:47:32.391Z,31.06
2022-08-07T14:50:05.281Z,30.93
2022-08-07T14:52:34.986Z,31.00
2022-08-07T14:55:03.805Z,30.98
2022-08-07T14:57:54.667Z,30.89
2022-08-07T15:03:17.466Z,31.33
2022-08-07T15:05:54.112Z,30.94
2022-08-07T15:08:33.826Z,31.24
2022-08-07T15:11:05.521Z,30.88
2022-08-07T15:13:36.868Z,30.88
2022-08-07T15:16:10.969Z,31.39
2022-08-07T15:18:43.971Z,31.31
2022-08-07T15:27:06.207Z,31.15
2022-08-07T15:30:10.913Z,31.58
2022-08-07T15:32:40.094Z,31.42
2022-08-07T15:35:16.941Z,31.48
2022-08-07T15:38:04.548Z,31.45
2022-08-07T15:40:39.001Z,31.38
2022-08-07T15:43:53.196Z,31.00
2022-08-07T15:46:31.728Z,31.39
2022-08-07T15:54:42.032Z,31.38
2022-08-07T15:57:27.933Z,30.88
2022-08-07T16:00:04.369Z,31.41
2022-08-07T16:02:42.213Z,31.30
2022-08-07T16:05:17.376Z,30.77
2022-08-07T16:08:31.754Z,31.26
2022-08-07T16:10:38.427Z,30.87
2022-08-07T16:13:59.211Z,30.94
2022-08-07T16:16:57.022Z,31.28
2022-08-07T16:20:00.028Z,30.91
2022-08-07T16:22:55.104Z,31.34
2022-08-07T16:25:53.946Z,31.65
2022-08-07T16:30:07.033Z,31.53
2022-08-07T16:31:57.577Z,31.40
2022-08-07T16:34:48.208Z,31.56
2022-08-07T16:38:04.885Z,31.68
2022-08-07T16:41:01.873Z,31.39
2022-08-07T16:44:06.017Z,31.22
2022-08-07T16:47:51.367Z,31.19
2022-08-07T16:50:38.752Z,31.04
2022-08-07T16:54:06.012Z,31.25
2022-08-07T16:56:53.466Z,31.09
2022-08-07T16:59:47.127Z,31.30
2022-08-07T17:02:52.982Z,31.14
2022-08-07T17:06:30.446Z,31.16
2022-08-07T17:09:08.657Z,30.94
2022-08-07T17:12:01.527Z,31.58
2022-08-07T17:14:32.357Z,31.59
2022-08-07T17:17:04.695Z,31.74
2022-08-07T17:20:02.015Z,31.23
2022-08-07T17:22:36.452Z,31.68
2022-08-07T17:25:12.852Z,31.31
2022-08-07T17:27:58.213Z,31.71
2022-08-07T17:30:32.426Z,31.31
2022-08-07T17:34:08.677Z,31.48
2022-08-07T17:36:13.440Z,31.17
2022-08-07T17:39:00.352Z,31.15
2022-08-07T17:42:04.557Z,31.43
2022-08-07T17:44:45.529Z,31.76
2022-08-07T17:47:42.309Z,31.45
2022-08-07T17:50:19.327Z,31.43
2022-08-07T17:52:53.074Z,31.61
2022-08-07T17:56:00.187Z,31.53
2022-08-07T17:58:30.440Z,31.76
2022-08-07T18:01:02.671Z,31.63
2022-08-07T18:04:08.136Z,32.01
2022-08-07T18:06:48.113Z,32.11
2022-08-07T18:09:48.220Z,32.56
2022-08-07T18:12:51.491Z,32.51
2022-08-07T18:15:23.268Z,32.15
2022-08-07T18:18:45.379Z,32.32
2022-08-07T18:21:08.186Z,32.41
2022-08-07T18:24:02.729Z,31.96
2022-08-07T18:27:08.032Z,32.14
2022-08-07T18:30:06.950Z,32.03
2022-08-07T18:33:15.502Z,32.03
2022-08-07T18:35:57.472Z,31.99
2022-08-07T18:38:55.946Z,31.72
2022-08-07T18:41:45.900Z,32.32
2022-08-07T18:45:09.189Z,32.18
2022-08-07T18:47:44.594Z,31.87
2022-08-07T18:50:44.189Z,32.13
2022-08-07T18:53:22.020Z,32.20
2022-08-07T18:56:13.705Z,32.50
2022-08-07T18:59:47.631Z,32.85
2022-08-07T19:02:19.772Z,33.43
2022-08-07T19:05:14.982Z,33.48
2022-08-07T19:07:57.077Z,33.14
2022-08-07T19:10:31.293Z,32.88
2022-08-07T19:13:11.827Z,32.75
2022-08-07T19:16:04.559Z,32.88
2022-08-07T19:18:45.074Z,32.77
2022-08-07T19:21:48.046Z,32.38
2022-08-07T19:24:30.835Z,32.67
2022-08-07T19:28:29.592Z,32.77
2022-08-07T19:30:57.727Z,32.59
2022-08-07T19:32:46.470Z,32.41
2022-08-07T19:35:18.956Z,32.53
2022-08-07T19:37:57.644Z,32.55
2022-08-07T19:40:31.654Z,32.47
2022-08-07T19:43:09.448Z,32.88
2022-08-07T19:46:05.977Z,32.63
2022-08-07T19:48:42.768Z,32.91
2022-08-07T19:51:19.797Z,32.74
2022-08-07T19:54:33.179Z,33.02
2022-08-07T19:57:52.207Z,32.95
2022-08-07T19:59:40.540Z,32.89
2022-08-07T20:02:19.156Z,33.05
2022-08-07T20:04:50.150Z,32.58
2022-08-07T20:07:27.021Z,32.47
2022-08-07T20:10:36.181Z,32.51
2022-08-07T20:13:06.117Z,32.81
2022-08-07T20:15:37.119Z,32.60
2022-08-07T20:18:14.640Z,32.64
2022-08-07T20:20:46.057Z,32.42
2022-08-07T20:23:33.084Z,32.85
2022-08-07T20:26:10.697Z,32.64
2022-08-07T20:28:41.587Z,32.60
2022-08-07T20:31:21.290Z,32.73
2022-08-07T20:33:56.696Z,33.13
2022-08-07T20:36:27.221Z,32.88
2022-08-07T20:39:00.497Z,33.15
2022-08-07T20:41:37.996Z,32.74
2022-08-07T20:44:12.449Z,33.08
2022-08-07T20:46:44.622Z,32.66
2022-08-07T20:50:00.201Z,32.83
2022-08-07T20:52:09.350Z,32.56
2022-08-07T20:54:53.427Z,32.82
2022-08-07T20:57:26.240Z,32.96
2022-08-07T21:00:06.281Z,33.00
2022-08-07T21:02:39.229Z,32.69
2022-08-07T21:05:16.098Z,32.62
2022-08-07T21:07:49.625Z,32.87
2022-08-07T21:10:29.670Z,32.75
2022-08-07T21:13:03.057Z,32.64
2022-08-07T21:15:58.740Z,32.79
2022-08-07T21:18:27.964Z,32.55
2022-08-07T21:20:59.834Z,32.75
2022-08-07T21:23:49.449Z,32.73
2022-08-07T21:26:34.791Z,32.67
2022-08-07T21:29:15.728Z,33.09
2022-08-07T21:32:46.988Z,33.00
2022-08-07T21:34:46.239Z,33.09
2022-08-07T21:37:23.918Z,32.87
2022-08-07T21:39:59.470Z,32.96
2022-08-07T21:42:42.688Z,33.17
2022-08-07T21:46:07.693Z,33.04
2022-08-07T21:48:27.864Z,32.87
2022-08-07T21:51:20.049Z,32.96
2022-08-07T21:54:04.141Z,32.64
2022-08-07T21:56:47.786Z,33.01
2022-08-07T21:59:29.706Z,32.48
2022-08-07T22:02:10.786Z,32.59
2022-08-07T22:04:51.119Z,32.47
2022-08-07T22:07:31.822Z,32.77
2022-08-07T22:10:18.211Z,32.62
2022-08-07T22:12:50.834Z,32.83
2022-08-07T22:16:38.516Z,32.95
2022-08-07T22:18:14.930Z,33.27
2022-08-07T22:20:52.342Z,33.07
2022-08-07T22:23:24.473Z,32.85
2022-08-07T22:26:01.391Z,33.08
2022-08-07T22:28:40.369Z,32.61
2022-08-07T22:31:45.384Z,33.04
2022-08-07T22:34:12.904Z,32.84
2022-08-07T22:36:47.599Z,33.14
2022-08-07T22:39:26.155Z,33.09
2022-08-07T22:42:18.926Z,32.83
2022-08-07T22:44:58.678Z,32.74
2022-08-07T22:47:55.891Z,32.61
2022-08-07T22:51:02.987Z,32.97
2022-08-07T22:54:07.301Z,32.78
2022-08-07T22:56:37.620Z,32.89
2022-08-07T22:59:33.100Z,33.01
2022-08-07T23:02:13.938Z,33.05
2022-08-07T23:06:10.294Z,32.92
2022-08-07T23:07:57.996Z,33.15
2022-08-07T23:10:41.343Z,33.22
2022-08-07T23:14:05.182Z,33.16
2022-08-07T23:16:54.606Z,33.02
2022-08-07T23:19:38.995Z,33.31
2022-08-07T23:22:32.609Z,33.40
2022-08-07T23:25:16.058Z,33.24
2022-08-07T23:28:22.142Z,33.19
2022-08-07T23:31:11.193Z,33.27
2022-08-07T23:34:22.144Z,33.18
2022-08-07T23:37:22.884Z,33.22
2022-08-07T23:40:06.054Z,33.06
2022-08-07T23:42:53.088Z,33.20
2022-08-07T23:45:33.006Z,33.33
2022-08-07T23:48:58.601Z,32.90
2022-08-07T23:53:00.712Z,33.24
2022-08-07T23:54:36.084Z,33.36
2022-08-07T23:57:18.562Z,33.25
